sensor_id;sensor_type;location;lat;lon;timestamp;temperature;humidity
20712;DHT22;10517;50.742;4.224;2023-04-28T00:01:15;12.10;99.90
20712;DHT22;10517;50.742;4.224;2023-04-28T00:03:41;12.20;99.90
20712;DHT22;10517;50.742;4.224;2023-04-28T00:06:07;12.00;99.90
20712;DHT22;10517;50.742;4.224;2023-04-28T00:08:33;12.00;99.90
20712;DHT22;10517;50.742;4.224;2023-04-28T00:10:59;12.00;99.90
20712;DHT22;10517;50.742;4.224;2023-04-28T00:13:25;12.00;99.90
20712;DHT22;10517;50.742;4.224;2023-04-28T00:15:51;11.90;99.90
20712;DHT22;10517;50.742;4.224;2023-04-28T00:18:18;11.90;99.90
20712;DHT22;10517;50.742;4.224;2023-04-28T00:20:43;11.90;99.90
20712;DHT22;10517;50.742;4.224;2023-04-28T00:23:09;11.90;99.90
20712;DHT22;10517;50.742;4.224;2023-04-28T00:25:35;12.00;99.90
20712;DHT22;10517;50.742;4.224;2023-04-28T00:28:01;11.90;99.90
20712;DHT22;10517;50.742;4.224;2023-04-28T00:30:29;11.90;99.90
20712;DHT22;10517;50.742;4.224;2023-04-28T00:32:54;11.90;99.90
20712;DHT22;10517;50.742;4.224;2023-04-28T00:35:20;11.80;99.90
20712;DHT22;10517;50.742;4.224;2023-04-28T00:37:46;11.80;99.90
20712;DHT22;10517;50.742;4.224;2023-04-28T00:40:12;11.80;99.90
20712;DHT22;10517;50.742;4.224;2023-04-28T00:42:37;11.80;99.90
20712;DHT22;10517;50.742;4.224;2023-04-28T00:45:03;11.80;99.90
20712;DHT22;10517;50.742;4.224;2023-04-28T00:47:36;11.80;99.90
20712;DHT22;10517;50.742;4.224;2023-04-28T00:50:02;11.90;99.90
20712;DHT22;10517;50.742;4.224;2023-04-28T00:52:30;11.80;99.90
20712;DHT22;10517;50.742;4.224;2023-04-28T00:54:56;11.90;99.90
20712;DHT22;10517;50.742;4.224;2023-04-28T00:57:22;11.90;99.90
20712;DHT22;10517;50.742;4.224;2023-04-28T00:59:48;11.90;99.90
20712;DHT22;10517;50.742;4.224;2023-04-28T01:02:14;12.00;99.90
20712;DHT22;10517;50.742;4.224;2023-04-28T01:04:44;12.10;99.90
20712;DHT22;10517;50.742;4.224;2023-04-28T01:07:10;12.10;99.90
20712;DHT22;10517;50.742;4.224;2023-04-28T01:09:36;12.10;99.90
20712;DHT22;10517;50.742;4.224;2023-04-28T01:12:02;12.10;99.90
20712;DHT22;10517;50.742;4.224;2023-04-28T01:14:27;12.10;99.90
20712;DHT22;10517;50.742;4.224;2023-04-28T01:16:53;12.20;99.90
20712;DHT22;10517;50.742;4.224;2023-04-28T01:19:21;12.10;99.90
20712;DHT22;10517;50.742;4.224;2023-04-28T01:21:50;12.10;99.90
20712;DHT22;10517;50.742;4.224;2023-04-28T01:24:16;12.00;99.90
20712;DHT22;10517;50.742;4.224;2023-04-28T01:26:42;12.00;99.90
20712;DHT22;10517;50.742;4.224;2023-04-28T01:29:07;11.90;99.90
20712;DHT22;10517;50.742;4.224;2023-04-28T01:31:33;11.90;99.90
20712;DHT22;10517;50.742;4.224;2023-04-28T01:33:58;11.90;99.90
20712;DHT22;10517;50.742;4.224;2023-04-28T01:36:24;11.90;99.90
20712;DHT22;10517;50.742;4.224;2023-04-28T01:38:51;11.80;99.90
20712;DHT22;10517;50.742;4.224;2023-04-28T01:41:17;11.70;99.90
20712;DHT22;10517;50.742;4.224;2023-04-28T01:43:43;11.70;99.90
20712;DHT22;10517;50.742;4.224;2023-04-28T01:46:09;11.70;99.90
20712;DHT22;10517;50.742;4.224;2023-04-28T01:48:35;11.80;99.90
20712;DHT22;10517;50.742;4.224;2023-04-28T01:51:00;11.80;99.90
20712;DHT22;10517;50.742;4.224;2023-04-28T01:53:26;11.90;99.90
20712;DHT22;10517;50.742;4.224;2023-04-28T01:55:52;12.00;99.90
20712;DHT22;10517;50.742;4.224;2023-04-28T01:58:18;12.00;99.90
20712;DHT22;10517;50.742;4.224;2023-04-28T02:00:43;12.00;99.90
20712;DHT22;10517;50.742;4.224;2023-04-28T02:03:09;12.00;99.90
20712;DHT22;10517;50.742;4.224;2023-04-28T02:05:35;12.00;99.90
20712;DHT22;10517;50.742;4.224;2023-04-28T02:08:01;12.10;99.90
20712;DHT22;10517;50.742;4.224;2023-04-28T02:10:27;12.00;99.90
20712;DHT22;10517;50.742;4.224;2023-04-28T02:12:53;12.10;99.90
20712;DHT22;10517;50.742;4.224;2023-04-28T02:15:19;12.20;99.90
20712;DHT22;10517;50.742;4.224;2023-04-28T02:17:44;12.10;99.90
20712;DHT22;10517;50.742;4.224;2023-04-28T02:20:10;12.00;99.90
20712;DHT22;10517;50.742;4.224;2023-04-28T02:22:36;11.90;99.90
20712;DHT22;10517;50.742;4.224;2023-04-28T02:25:02;12.00;99.90
20712;DHT22;10517;50.742;4.224;2023-04-28T02:27:28;11.80;99.90
20712;DHT22;10517;50.742;4.224;2023-04-28T02:29:53;11.70;99.90
20712;DHT22;10517;50.742;4.224;2023-04-28T02:32:19;11.60;99.90
20712;DHT22;10517;50.742;4.224;2023-04-28T02:34:44;11.70;99.90
20712;DHT22;10517;50.742;4.224;2023-04-28T02:37:10;11.60;99.90
20712;DHT22;10517;50.742;4.224;2023-04-28T02:39:36;11.70;99.90
20712;DHT22;10517;50.742;4.224;2023-04-28T02:42:02;11.60;99.90
20712;DHT22;10517;50.742;4.224;2023-04-28T02:44:29;11.50;99.90
20712;DHT22;10517;50.742;4.224;2023-04-28T02:46:55;11.50;99.90
20712;DHT22;10517;50.742;4.224;2023-04-28T02:49:21;11.50;99.90
20712;DHT22;10517;50.742;4.224;2023-04-28T02:51:46;11.50;99.90
20712;DHT22;10517;50.742;4.224;2023-04-28T02:54:12;11.60;99.90
20712;DHT22;10517;50.742;4.224;2023-04-28T02:56:38;11.60;99.90
20712;DHT22;10517;50.742;4.224;2023-04-28T02:59:05;11.80;99.90
20712;DHT22;10517;50.742;4.224;2023-04-28T03:01:31;11.70;99.90
20712;DHT22;10517;50.742;4.224;2023-04-28T03:03:57;11.80;99.90
20712;DHT22;10517;50.742;4.224;2023-04-28T03:06:23;11.80;99.90
20712;DHT22;10517;50.742;4.224;2023-04-28T03:08:48;11.70;99.90
20712;DHT22;10517;50.742;4.224;2023-04-28T03:11:14;11.80;99.90
20712;DHT22;10517;50.742;4.224;2023-04-28T03:13:40;11.90;99.90
20712;DHT22;10517;50.742;4.224;2023-04-28T03:16:06;12.00;99.90
20712;DHT22;10517;50.742;4.224;2023-04-28T03:18:32;12.10;99.90
20712;DHT22;10517;50.742;4.224;2023-04-28T03:20:57;12.10;99.90
20712;DHT22;10517;50.742;4.224;2023-04-28T03:23:23;12.10;99.90
20712;DHT22;10517;50.742;4.224;2023-04-28T03:25:49;12.00;99.90
20712;DHT22;10517;50.742;4.224;2023-04-28T03:28:14;12.00;99.90
20712;DHT22;10517;50.742;4.224;2023-04-28T03:30:40;12.00;99.90
20712;DHT22;10517;50.742;4.224;2023-04-28T03:33:06;12.10;99.90
20712;DHT22;10517;50.742;4.224;2023-04-28T03:35:31;12.10;99.90
20712;DHT22;10517;50.742;4.224;2023-04-28T03:37:57;12.10;99.90
20712;DHT22;10517;50.742;4.224;2023-04-28T03:40:23;12.20;99.90
20712;DHT22;10517;50.742;4.224;2023-04-28T03:42:48;12.30;99.90
20712;DHT22;10517;50.742;4.224;2023-04-28T03:45:14;12.40;99.90
20712;DHT22;10517;50.742;4.224;2023-04-28T03:47:40;12.30;99.90
20712;DHT22;10517;50.742;4.224;2023-04-28T03:50:06;12.30;99.90
20712;DHT22;10517;50.742;4.224;2023-04-28T03:52:32;12.40;99.90
20712;DHT22;10517;50.742;4.224;2023-04-28T03:54:57;12.30;99.90
20712;DHT22;10517;50.742;4.224;2023-04-28T03:57:23;12.30;99.90
20712;DHT22;10517;50.742;4.224;2023-04-28T03:59:49;12.40;99.90
20712;DHT22;10517;50.742;4.224;2023-04-28T04:02:15;12.50;99.90
20712;DHT22;10517;50.742;4.224;2023-04-28T04:04:41;12.40;99.90
20712;DHT22;10517;50.742;4.224;2023-04-28T04:07:07;12.50;99.90
20712;DHT22;10517;50.742;4.224;2023-04-28T04:09:32;12.60;99.90
20712;DHT22;10517;50.742;4.224;2023-04-28T04:11:58;12.60;99.90
20712;DHT22;10517;50.742;4.224;2023-04-28T04:14:25;12.70;99.90
20712;DHT22;10517;50.742;4.224;2023-04-28T04:16:51;12.80;99.90
20712;DHT22;10517;50.742;4.224;2023-04-28T04:19:16;12.90;99.90
20712;DHT22;10517;50.742;4.224;2023-04-28T04:21:42;12.90;99.90
20712;DHT22;10517;50.742;4.224;2023-04-28T04:24:08;12.90;99.90
20712;DHT22;10517;50.742;4.224;2023-04-28T04:26:33;12.90;99.90
20712;DHT22;10517;50.742;4.224;2023-04-28T04:28:59;13.00;99.90
20712;DHT22;10517;50.742;4.224;2023-04-28T04:31:25;13.10;99.90
20712;DHT22;10517;50.742;4.224;2023-04-28T04:33:51;13.10;99.90
20712;DHT22;10517;50.742;4.224;2023-04-28T04:36:16;13.10;99.90
20712;DHT22;10517;50.742;4.224;2023-04-28T04:38:42;13.20;99.90
20712;DHT22;10517;50.742;4.224;2023-04-28T04:41:08;13.20;99.90
20712;DHT22;10517;50.742;4.224;2023-04-28T04:43:33;13.20;99.90
20712;DHT22;10517;50.742;4.224;2023-04-28T04:45:59;13.20;99.90
20712;DHT22;10517;50.742;4.224;2023-04-28T04:48:25;13.30;99.90
20712;DHT22;10517;50.742;4.224;2023-04-28T04:50:50;13.30;99.90
20712;DHT22;10517;50.742;4.224;2023-04-28T04:53:16;13.40;99.90
20712;DHT22;10517;50.742;4.224;2023-04-28T04:55:42;13.50;99.90
20712;DHT22;10517;50.742;4.224;2023-04-28T04:58:07;13.50;99.90
20712;DHT22;10517;50.742;4.224;2023-04-28T05:00:33;13.60;99.90
20712;DHT22;10517;50.742;4.224;2023-04-28T05:02:59;13.70;99.90
20712;DHT22;10517;50.742;4.224;2023-04-28T05:05:24;13.80;99.90
20712;DHT22;10517;50.742;4.224;2023-04-28T05:07:50;13.80;99.90
20712;DHT22;10517;50.742;4.224;2023-04-28T05:10:16;13.80;99.90
20712;DHT22;10517;50.742;4.224;2023-04-28T05:12:41;13.80;99.90
20712;DHT22;10517;50.742;4.224;2023-04-28T05:15:09;13.90;99.90
20712;DHT22;10517;50.742;4.224;2023-04-28T05:17:35;13.90;99.90
20712;DHT22;10517;50.742;4.224;2023-04-28T05:20:01;13.90;99.90
20712;DHT22;10517;50.742;4.224;2023-04-28T05:22:27;14.00;99.90
20712;DHT22;10517;50.742;4.224;2023-04-28T05:24:52;14.00;99.90
20712;DHT22;10517;50.742;4.224;2023-04-28T05:27:18;14.10;99.90
20712;DHT22;10517;50.742;4.224;2023-04-28T05:29:44;14.10;99.90
20712;DHT22;10517;50.742;4.224;2023-04-28T05:32:09;14.20;99.90
20712;DHT22;10517;50.742;4.224;2023-04-28T05:34:35;14.20;99.90
20712;DHT22;10517;50.742;4.224;2023-04-28T05:37:01;14.30;99.90
20712;DHT22;10517;50.742;4.224;2023-04-28T05:39:26;14.40;99.90
20712;DHT22;10517;50.742;4.224;2023-04-28T05:41:52;14.40;99.90
20712;DHT22;10517;50.742;4.224;2023-04-28T05:44:18;14.40;99.90
20712;DHT22;10517;50.742;4.224;2023-04-28T05:46:43;14.30;99.90
20712;DHT22;10517;50.742;4.224;2023-04-28T05:49:09;14.50;99.90
20712;DHT22;10517;50.742;4.224;2023-04-28T05:51:35;14.50;99.90
20712;DHT22;10517;50.742;4.224;2023-04-28T05:54:01;14.60;99.90
20712;DHT22;10517;50.742;4.224;2023-04-28T05:56:27;14.50;99.90
20712;DHT22;10517;50.742;4.224;2023-04-28T05:58:53;14.50;99.90
20712;DHT22;10517;50.742;4.224;2023-04-28T06:01:18;14.60;99.90
20712;DHT22;10517;50.742;4.224;2023-04-28T06:03:44;14.50;99.90
20712;DHT22;10517;50.742;4.224;2023-04-28T06:06:10;14.50;99.90
20712;DHT22;10517;50.742;4.224;2023-04-28T06:08:37;14.60;99.90
20712;DHT22;10517;50.742;4.224;2023-04-28T06:11:02;14.50;99.90
20712;DHT22;10517;50.742;4.224;2023-04-28T06:13:28;14.50;99.90
20712;DHT22;10517;50.742;4.224;2023-04-28T06:15:54;14.40;99.90
20712;DHT22;10517;50.742;4.224;2023-04-28T06:18:19;14.30;99.90
20712;DHT22;10517;50.742;4.224;2023-04-28T06:20:46;14.20;99.90
20712;DHT22;10517;50.742;4.224;2023-04-28T06:23:12;14.20;99.90
20712;DHT22;10517;50.742;4.224;2023-04-28T06:25:37;14.30;99.90
20712;DHT22;10517;50.742;4.224;2023-04-28T06:28:03;14.40;99.90
20712;DHT22;10517;50.742;4.224;2023-04-28T06:30:29;14.30;99.90
20712;DHT22;10517;50.742;4.224;2023-04-28T06:32:54;14.30;99.90
20712;DHT22;10517;50.742;4.224;2023-04-28T06:35:22;14.40;99.90
20712;DHT22;10517;50.742;4.224;2023-04-28T06:37:48;14.50;99.90
20712;DHT22;10517;50.742;4.224;2023-04-28T06:40:14;14.70;99.90
20712;DHT22;10517;50.742;4.224;2023-04-28T06:42:40;14.80;99.90
20712;DHT22;10517;50.742;4.224;2023-04-28T06:45:06;14.90;99.90
20712;DHT22;10517;50.742;4.224;2023-04-28T06:47:32;15.00;99.90
20712;DHT22;10517;50.742;4.224;2023-04-28T06:49:58;14.90;99.90
20712;DHT22;10517;50.742;4.224;2023-04-28T06:52:23;15.00;99.90
20712;DHT22;10517;50.742;4.224;2023-04-28T06:54:49;15.20;99.90
20712;DHT22;10517;50.742;4.224;2023-04-28T06:57:15;15.20;99.90
20712;DHT22;10517;50.742;4.224;2023-04-28T06:59:41;15.30;99.90
20712;DHT22;10517;50.742;4.224;2023-04-28T07:02:09;15.40;99.90
20712;DHT22;10517;50.742;4.224;2023-04-28T07:04:35;15.30;99.90
20712;DHT22;10517;50.742;4.224;2023-04-28T07:07:01;15.30;99.90
20712;DHT22;10517;50.742;4.224;2023-04-28T07:09:27;15.40;99.90
20712;DHT22;10517;50.742;4.224;2023-04-28T07:11:52;15.30;99.90
20712;DHT22;10517;50.742;4.224;2023-04-28T07:14:18;15.40;99.90
20712;DHT22;10517;50.742;4.224;2023-04-28T07:16:44;15.50;99.90
20712;DHT22;10517;50.742;4.224;2023-04-28T07:19:10;15.60;99.90
20712;DHT22;10517;50.742;4.224;2023-04-28T07:21:35;15.60;99.90
20712;DHT22;10517;50.742;4.224;2023-04-28T07:24:01;15.80;99.90
20712;DHT22;10517;50.742;4.224;2023-04-28T07:26:27;15.80;99.90
20712;DHT22;10517;50.742;4.224;2023-04-28T07:28:53;16.00;99.90
20712;DHT22;10517;50.742;4.224;2023-04-28T07:31:18;16.10;99.90
20712;DHT22;10517;50.742;4.224;2023-04-28T07:33:46;16.30;99.90
20712;DHT22;10517;50.742;4.224;2023-04-28T07:36:11;16.50;99.90
20712;DHT22;10517;50.742;4.224;2023-04-28T07:38:37;16.60;99.90
20712;DHT22;10517;50.742;4.224;2023-04-28T07:41:03;16.90;99.90
20712;DHT22;10517;50.742;4.224;2023-04-28T07:43:29;17.20;99.90
20712;DHT22;10517;50.742;4.224;2023-04-28T07:45:55;17.40;99.90
20712;DHT22;10517;50.742;4.224;2023-04-28T07:48:20;17.50;99.90
20712;DHT22;10517;50.742;4.224;2023-04-28T07:50:46;17.70;99.90
20712;DHT22;10517;50.742;4.224;2023-04-28T07:53:12;17.80;99.90
20712;DHT22;10517;50.742;4.224;2023-04-28T07:55:38;18.20;99.90
20712;DHT22;10517;50.742;4.224;2023-04-28T07:58:06;18.50;99.90
20712;DHT22;10517;50.742;4.224;2023-04-28T08:00:32;18.60;99.90
20712;DHT22;10517;50.742;4.224;2023-04-28T08:02:58;18.50;99.90
20712;DHT22;10517;50.742;4.224;2023-04-28T08:05:24;18.70;99.90
20712;DHT22;10517;50.742;4.224;2023-04-28T08:07:50;18.40;99.90
20712;DHT22;10517;50.742;4.224;2023-04-28T08:10:15;18.30;99.90
20712;DHT22;10517;50.742;4.224;2023-04-28T08:12:41;18.00;99.90
20712;DHT22;10517;50.742;4.224;2023-04-28T08:15:08;17.50;99.90
20712;DHT22;10517;50.742;4.224;2023-04-28T08:17:34;17.40;99.90
20712;DHT22;10517;50.742;4.224;2023-04-28T08:19:59;17.00;99.90
20712;DHT22;10517;50.742;4.224;2023-04-28T08:22:25;16.90;99.90
20712;DHT22;10517;50.742;4.224;2023-04-28T08:24:51;16.80;99.90
20712;DHT22;10517;50.742;4.224;2023-04-28T08:27:16;16.80;99.90
20712;DHT22;10517;50.742;4.224;2023-04-28T08:29:42;17.00;99.90
20712;DHT22;10517;50.742;4.224;2023-04-28T08:32:08;17.00;99.90
20712;DHT22;10517;50.742;4.224;2023-04-28T08:34:33;16.90;99.90
20712;DHT22;10517;50.742;4.224;2023-04-28T08:37:00;16.90;99.90
20712;DHT22;10517;50.742;4.224;2023-04-28T08:39:26;17.10;99.90
20712;DHT22;10517;50.742;4.224;2023-04-28T08:41:52;17.30;99.90
20712;DHT22;10517;50.742;4.224;2023-04-28T08:44:18;17.20;99.90
20712;DHT22;10517;50.742;4.224;2023-04-28T08:46:45;17.00;99.90
20712;DHT22;10517;50.742;4.224;2023-04-28T08:49:15;17.20;99.90
20712;DHT22;10517;50.742;4.224;2023-04-28T08:51:58;16.90;99.90
20712;DHT22;10517;50.742;4.224;2023-04-28T08:54:29;16.90;99.90
20712;DHT22;10517;50.742;4.224;2023-04-28T08:56:56;16.80;99.90
20712;DHT22;10517;50.742;4.224;2023-04-28T08:59:22;16.60;99.90
20712;DHT22;10517;50.742;4.224;2023-04-28T09:01:48;16.70;99.90
20712;DHT22;10517;50.742;4.224;2023-04-28T09:04:18;16.80;99.90
20712;DHT22;10517;50.742;4.224;2023-04-28T09:06:44;16.90;99.90
20712;DHT22;10517;50.742;4.224;2023-04-28T09:12:00;17.40;99.90
20712;DHT22;10517;50.742;4.224;2023-04-28T09:14:27;17.70;99.90
20712;DHT22;10517;50.742;4.224;2023-04-28T09:16:53;18.30;99.90
20712;DHT22;10517;50.742;4.224;2023-04-28T09:19:19;18.50;99.90
20712;DHT22;10517;50.742;4.224;2023-04-28T09:21:55;18.80;99.90
20712;DHT22;10517;50.742;4.224;2023-04-28T09:24:40;19.10;99.90
20712;DHT22;10517;50.742;4.224;2023-04-28T09:27:08;19.40;99.90
20712;DHT22;10517;50.742;4.224;2023-04-28T09:29:36;19.70;99.90
20712;DHT22;10517;50.742;4.224;2023-04-28T09:32:12;19.80;99.90
20712;DHT22;10517;50.742;4.224;2023-04-28T09:34:49;19.80;99.90
20712;DHT22;10517;50.742;4.224;2023-04-28T09:37:16;20.00;99.90
20712;DHT22;10517;50.742;4.224;2023-04-28T09:39:44;20.20;99.90
20712;DHT22;10517;50.742;4.224;2023-04-28T09:42:18;19.80;99.90
20712;DHT22;10517;50.742;4.224;2023-04-28T09:44:56;20.00;99.90
20712;DHT22;10517;50.742;4.224;2023-04-28T09:47:22;20.30;99.90
20712;DHT22;10517;50.742;4.224;2023-04-28T09:49:55;20.20;99.90
20712;DHT22;10517;50.742;4.224;2023-04-28T09:52:23;19.10;99.90
20712;DHT22;10517;50.742;4.224;2023-04-28T09:54:50;18.50;99.90
20712;DHT22;10517;50.742;4.224;2023-04-28T09:57:17;18.60;99.90
20712;DHT22;10517;50.742;4.224;2023-04-28T09:59:46;18.60;99.90
20712;DHT22;10517;50.742;4.224;2023-04-28T10:02:14;18.50;99.90
20712;DHT22;10517;50.742;4.224;2023-04-28T10:04:43;18.90;99.90
20712;DHT22;10517;50.742;4.224;2023-04-28T10:07:10;19.10;99.90
20712;DHT22;10517;50.742;4.224;2023-04-28T10:09:37;19.10;99.90
20712;DHT22;10517;50.742;4.224;2023-04-28T10:12:04;19.20;99.90
20712;DHT22;10517;50.742;4.224;2023-04-28T10:14:30;19.20;99.90
20712;DHT22;10517;50.742;4.224;2023-04-28T10:16:58;19.30;99.90
20712;DHT22;10517;50.742;4.224;2023-04-28T10:19:24;19.30;99.90
20712;DHT22;10517;50.742;4.224;2023-04-28T10:25:01;19.80;99.90
20712;DHT22;10517;50.742;4.224;2023-04-28T10:27:29;19.70;99.90
20712;DHT22;10517;50.742;4.224;2023-04-28T10:30:09;20.00;99.90
20712;DHT22;10517;50.742;4.224;2023-04-28T10:32:36;20.10;99.90
20712;DHT22;10517;50.742;4.224;2023-04-28T10:40:40;19.10;99.90
20712;DHT22;10517;50.742;4.224;2023-04-28T10:56:22;18.20;99.90
20712;DHT22;10517;50.742;4.224;2023-04-28T10:58:58;18.50;99.90
20712;DHT22;10517;50.742;4.224;2023-04-28T11:01:29;18.80;99.90
20712;DHT22;10517;50.742;4.224;2023-04-28T11:04:09;18.80;99.90
20712;DHT22;10517;50.742;4.224;2023-04-28T11:06:41;18.90;99.90
20712;DHT22;10517;50.742;4.224;2023-04-28T11:17:03;18.10;99.90
20712;DHT22;10517;50.742;4.224;2023-04-28T11:19:35;17.80;99.90
20712;DHT22;10517;50.742;4.224;2023-04-28T11:22:04;17.80;99.90
20712;DHT22;10517;50.742;4.224;2023-04-28T11:24:36;17.80;99.90
20712;DHT22;10517;50.742;4.224;2023-04-28T11:27:02;17.80;99.90
20712;DHT22;10517;50.742;4.224;2023-04-28T11:29:39;18.10;99.90
20712;DHT22;10517;50.742;4.224;2023-04-28T11:32:09;18.10;99.90
20712;DHT22;10517;50.742;4.224;2023-04-28T11:34:35;17.90;99.90
20712;DHT22;10517;50.742;4.224;2023-04-28T11:37:02;18.00;99.90
20712;DHT22;10517;50.742;4.224;2023-04-28T11:39:33;17.90;99.90
20712;DHT22;10517;50.742;4.224;2023-04-28T11:42:08;17.80;99.90
20712;DHT22;10517;50.742;4.224;2023-04-28T11:44:33;17.80;99.90
20712;DHT22;10517;50.742;4.224;2023-04-28T11:47:01;17.90;99.90
20712;DHT22;10517;50.742;4.224;2023-04-28T11:49:29;17.90;99.90
20712;DHT22;10517;50.742;4.224;2023-04-28T11:52:13;17.80;99.90
20712;DHT22;10517;50.742;4.224;2023-04-28T11:54:39;17.80;99.90
20712;DHT22;10517;50.742;4.224;2023-04-28T11:57:19;17.90;99.90
20712;DHT22;10517;50.742;4.224;2023-04-28T11:59:45;18.10;99.90
20712;DHT22;10517;50.742;4.224;2023-04-28T12:02:11;18.50;99.90
20712;DHT22;10517;50.742;4.224;2023-04-28T12:04:39;18.60;99.90
20712;DHT22;10517;50.742;4.224;2023-04-28T12:07:06;18.50;99.90
20712;DHT22;10517;50.742;4.224;2023-04-28T12:09:36;18.20;99.90
20712;DHT22;10517;50.742;4.224;2023-04-28T12:12:29;17.90;99.90
20712;DHT22;10517;50.742;4.224;2023-04-28T12:15:05;17.40;99.90
20712;DHT22;10517;50.742;4.224;2023-04-28T12:17:35;17.00;99.90
20712;DHT22;10517;50.742;4.224;2023-04-28T12:20:04;17.00;99.90
20712;DHT22;10517;50.742;4.224;2023-04-28T12:22:30;17.00;99.90
20712;DHT22;10517;50.742;4.224;2023-04-28T12:25:06;16.90;99.90
20712;DHT22;10517;50.742;4.224;2023-04-28T12:27:33;16.80;99.90
20712;DHT22;10517;50.742;4.224;2023-04-28T12:29:59;16.90;99.90
20712;DHT22;10517;50.742;4.224;2023-04-28T12:32:39;17.10;99.90
20712;DHT22;10517;50.742;4.224;2023-04-28T12:35:06;17.40;99.90
20712;DHT22;10517;50.742;4.224;2023-04-28T12:37:32;17.80;99.90
20712;DHT22;10517;50.742;4.224;2023-04-28T12:39:58;17.90;99.90
20712;DHT22;10517;50.742;4.224;2023-04-28T12:42:23;17.90;99.90
20712;DHT22;10517;50.742;4.224;2023-04-28T12:44:49;17.90;99.90
20712;DHT22;10517;50.742;4.224;2023-04-28T12:47:15;17.40;99.90
20712;DHT22;10517;50.742;4.224;2023-04-28T12:49:43;16.90;99.90
20712;DHT22;10517;50.742;4.224;2023-04-28T12:52:09;16.70;99.90
20712;DHT22;10517;50.742;4.224;2023-04-28T12:54:34;16.60;99.90
20712;DHT22;10517;50.742;4.224;2023-04-28T12:57:01;16.70;99.90
20712;DHT22;10517;50.742;4.224;2023-04-28T12:59:27;16.80;99.90
20712;DHT22;10517;50.742;4.224;2023-04-28T13:01:53;16.80;99.90
20712;DHT22;10517;50.742;4.224;2023-04-28T13:04:20;16.80;99.90
20712;DHT22;10517;50.742;4.224;2023-04-28T13:06:46;16.70;99.90
20712;DHT22;10517;50.742;4.224;2023-04-28T13:09:12;16.90;99.90
20712;DHT22;10517;50.742;4.224;2023-04-28T13:11:39;17.00;99.90
20712;DHT22;10517;50.742;4.224;2023-04-28T13:14:06;17.20;99.90
20712;DHT22;10517;50.742;4.224;2023-04-28T13:16:32;17.10;99.90
20712;DHT22;10517;50.742;4.224;2023-04-28T13:18:59;17.00;99.90
20712;DHT22;10517;50.742;4.224;2023-04-28T13:21:26;17.10;99.90
20712;DHT22;10517;50.742;4.224;2023-04-28T13:23:53;17.20;99.90
20712;DHT22;10517;50.742;4.224;2023-04-28T13:26:19;17.30;99.90
20712;DHT22;10517;50.742;4.224;2023-04-28T13:28:48;17.70;99.90
20712;DHT22;10517;50.742;4.224;2023-04-28T13:31:14;17.60;99.90
20712;DHT22;10517;50.742;4.224;2023-04-28T13:33:39;17.40;99.90
20712;DHT22;10517;50.742;4.224;2023-04-28T13:36:05;17.20;99.90
20712;DHT22;10517;50.742;4.224;2023-04-28T13:38:33;17.10;99.90
20712;DHT22;10517;50.742;4.224;2023-04-28T13:40:58;16.90;99.90
20712;DHT22;10517;50.742;4.224;2023-04-28T13:43:25;16.60;99.90
20712;DHT22;10517;50.742;4.224;2023-04-28T13:45:51;16.50;99.90
20712;DHT22;10517;50.742;4.224;2023-04-28T13:48:16;16.60;99.90
20712;DHT22;10517;50.742;4.224;2023-04-28T13:50:42;16.70;99.90
20712;DHT22;10517;50.742;4.224;2023-04-28T13:53:08;16.70;99.90
20712;DHT22;10517;50.742;4.224;2023-04-28T13:55:34;16.70;99.90
20712;DHT22;10517;50.742;4.224;2023-04-28T13:57:59;16.70;99.90
20712;DHT22;10517;50.742;4.224;2023-04-28T14:00:35;16.90;99.90
20712;DHT22;10517;50.742;4.224;2023-04-28T14:03:02;16.90;99.90
20712;DHT22;10517;50.742;4.224;2023-04-28T14:05:27;16.80;99.90
20712;DHT22;10517;50.742;4.224;2023-04-28T14:07:53;16.60;99.90
20712;DHT22;10517;50.742;4.224;2023-04-28T14:10:20;16.50;99.90
20712;DHT22;10517;50.742;4.224;2023-04-28T14:12:46;16.70;99.90
20712;DHT22;10517;50.742;4.224;2023-04-28T14:15:12;16.60;99.90
20712;DHT22;10517;50.742;4.224;2023-04-28T14:17:37;16.70;99.90
20712;DHT22;10517;50.742;4.224;2023-04-28T14:20:03;16.60;99.90
20712;DHT22;10517;50.742;4.224;2023-04-28T14:22:29;16.70;99.90
20712;DHT22;10517;50.742;4.224;2023-04-28T14:24:55;16.90;99.90
20712;DHT22;10517;50.742;4.224;2023-04-28T14:27:21;17.10;99.90
20712;DHT22;10517;50.742;4.224;2023-04-28T14:29:47;17.30;99.90
20712;DHT22;10517;50.742;4.224;2023-04-28T14:32:14;17.50;99.90
20712;DHT22;10517;50.742;4.224;2023-04-28T14:34:41;17.50;99.90
20712;DHT22;10517;50.742;4.224;2023-04-28T14:37:07;17.30;99.90
20712;DHT22;10517;50.742;4.224;2023-04-28T14:39:33;17.30;99.90
20712;DHT22;10517;50.742;4.224;2023-04-28T14:41:59;17.30;99.90
20712;DHT22;10517;50.742;4.224;2023-04-28T14:44:26;17.20;99.90
20712;DHT22;10517;50.742;4.224;2023-04-28T14:46:52;17.10;99.90
20712;DHT22;10517;50.742;4.224;2023-04-28T14:49:17;17.00;99.90
20712;DHT22;10517;50.742;4.224;2023-04-28T14:51:43;17.00;99.90
20712;DHT22;10517;50.742;4.224;2023-04-28T14:54:10;17.00;99.90
20712;DHT22;10517;50.742;4.224;2023-04-28T14:56:35;17.00;99.90
20712;DHT22;10517;50.742;4.224;2023-04-28T14:59:01;17.10;99.90
20712;DHT22;10517;50.742;4.224;2023-04-28T15:01:29;17.10;99.90
20712;DHT22;10517;50.742;4.224;2023-04-28T15:03:55;17.40;99.90
20712;DHT22;10517;50.742;4.224;2023-04-28T15:06:21;17.80;99.90
20712;DHT22;10517;50.742;4.224;2023-04-28T15:08:47;18.30;99.90
20712;DHT22;10517;50.742;4.224;2023-04-28T15:11:12;19.20;99.90
20712;DHT22;10517;50.742;4.224;2023-04-28T15:13:38;19.40;99.90
20712;DHT22;10517;50.742;4.224;2023-04-28T15:16:04;19.30;99.90
20712;DHT22;10517;50.742;4.224;2023-04-28T15:18:30;19.20;99.90
20712;DHT22;10517;50.742;4.224;2023-04-28T15:20:56;19.00;99.90
20712;DHT22;10517;50.742;4.224;2023-04-28T15:23:22;18.50;99.90
20712;DHT22;10517;50.742;4.224;2023-04-28T15:25:47;18.40;99.90
20712;DHT22;10517;50.742;4.224;2023-04-28T15:28:17;18.30;99.90
20712;DHT22;10517;50.742;4.224;2023-04-28T15:30:42;18.40;99.90
20712;DHT22;10517;50.742;4.224;2023-04-28T15:33:08;18.00;99.90
20712;DHT22;10517;50.742;4.224;2023-04-28T15:35:33;17.40;99.90
20712;DHT22;10517;50.742;4.224;2023-04-28T15:37:59;17.20;99.90
20712;DHT22;10517;50.742;4.224;2023-04-28T15:40:26;17.00;99.90
20712;DHT22;10517;50.742;4.224;2023-04-28T15:42:51;16.80;99.90
20712;DHT22;10517;50.742;4.224;2023-04-28T15:45:21;16.90;99.90
20712;DHT22;10517;50.742;4.224;2023-04-28T15:47:47;17.00;99.90
20712;DHT22;10517;50.742;4.224;2023-04-28T15:50:16;16.80;99.90
20712;DHT22;10517;50.742;4.224;2023-04-28T15:52:42;16.60;99.90
20712;DHT22;10517;50.742;4.224;2023-04-28T15:55:12;16.50;99.90
20712;DHT22;10517;50.742;4.224;2023-04-28T15:57:38;16.50;99.90
20712;DHT22;10517;50.742;4.224;2023-04-28T16:00:05;16.40;99.90